createdAt,value
2022-11-03T00:00:58.137Z,1022.17
2022-11-03T00:01:58.802Z,1022.24
2022-11-03T00:02:59.464Z,1022.30
2022-11-03T00:04:00.122Z,1022.27
2022-11-03T00:05:01.303Z,1022.23
2022-11-03T00:06:02.060Z,1022.23
2022-11-03T00:07:02.654Z,1022.31
2022-11-03T00:08:03.265Z,1022.37
2022-11-03T00:09:03.876Z,1022.41
2022-11-03T00:10:04.475Z,1022.34
2022-11-03T00:11:05.076Z,1022.34
2022-11-03T00:12:05.725Z,1022.36
2022-11-03T00:13:06.580Z,1022.35
2022-11-03T00:14:07.436Z,1022.37
2022-11-03T00:15:08.035Z,1022.35
2022-11-03T00:16:08.637Z,1022.41
2022-11-03T00:17:09.233Z,1022.38
2022-11-03T00:18:09.948Z,1022.40
2022-11-03T00:19:10.553Z,1022.28
2022-11-03T00:20:11.148Z,1022.36
2022-11-03T00:21:11.753Z,1022.42
2022-11-03T00:22:12.355Z,1022.34
2022-11-03T00:23:12.959Z,1022.33
2022-11-03T00:24:13.566Z,1022.30
2022-11-03T00:25:14.167Z,1022.22
2022-11-03T00:26:14.767Z,1022.18
2022-11-03T00:27:15.456Z,1022.10
2022-11-03T00:28:16.073Z,1022.07
2022-11-03T00:29:16.751Z,1021.96
2022-11-03T00:31:18.955Z,1021.98
2022-11-03T00:32:19.601Z,1021.88
2022-11-03T00:33:20.200Z,1021.91
2022-11-03T00:34:20.950Z,1021.78
2022-11-03T00:35:21.555Z,1021.75
2022-11-03T00:36:22.202Z,1021.71
2022-11-03T00:37:22.868Z,1021.80
2022-11-03T00:38:23.472Z,1021.85
2022-11-03T00:39:24.066Z,1021.95
2022-11-03T00:40:24.666Z,1021.90
2022-11-03T00:41:25.265Z,1021.87
2022-11-03T00:42:25.867Z,1021.78
2022-11-03T00:43:26.463Z,1021.83
2022-11-03T00:44:27.063Z,1021.79
2022-11-03T00:45:27.660Z,1021.76
2022-11-03T00:46:28.261Z,1021.79
2022-11-03T00:47:28.860Z,1021.82
2022-11-03T00:48:29.565Z,1021.80
2022-11-03T00:49:30.159Z,1021.82
2022-11-03T00:50:30.760Z,1021.84
2022-11-03T00:51:31.359Z,1021.77
2022-11-03T00:52:31.968Z,1021.77
2022-11-03T00:53:32.565Z,1021.69
2022-11-03T00:54:33.169Z,1021.74
2022-11-03T00:55:33.765Z,1021.73
2022-11-03T00:56:34.363Z,1021.63
2022-11-03T00:57:34.965Z,1021.66
2022-11-03T00:58:36.361Z,1021.76
2022-11-03T00:59:36.959Z,1021.80
2022-11-03T01:00:37.558Z,1021.78
2022-11-03T01:01:43.870Z,1021.78
2022-11-03T01:02:39.831Z,1021.80
2022-11-03T01:03:40.488Z,1021.76
2022-11-03T01:04:41.085Z,1021.75
2022-11-03T01:05:41.683Z,1021.81
2022-11-03T01:06:42.287Z,1021.81
2022-11-03T01:07:42.953Z,1021.81
2022-11-03T01:08:43.618Z,1021.72
2022-11-03T01:09:44.220Z,1021.72
2022-11-03T01:10:44.822Z,1021.71
2022-11-03T01:11:45.418Z,1021.73
2022-11-03T01:12:46.023Z,1021.72
2022-11-03T01:13:46.627Z,1021.76
2022-11-03T01:14:47.230Z,1021.61
2022-11-03T01:15:47.832Z,1021.62
2022-11-03T01:16:48.435Z,1021.58
2022-11-03T01:17:49.036Z,1021.53
2022-11-03T01:18:49.640Z,1021.54
2022-11-03T01:19:51.094Z,1021.53
2022-11-03T01:20:51.692Z,1021.53
2022-11-03T01:21:52.295Z,1021.58
2022-11-03T01:22:52.897Z,1021.49
2022-11-03T01:23:53.499Z,1021.51
2022-11-03T01:24:54.097Z,1021.42
2022-11-03T01:25:54.697Z,1021.39
2022-11-03T01:26:55.298Z,1021.41
2022-11-03T01:27:55.960Z,1021.48
2022-11-03T01:28:56.552Z,1021.37
2022-11-03T01:29:57.158Z,1021.39
2022-11-03T01:30:57.823Z,1021.35
2022-11-03T01:31:58.422Z,1021.37
2022-11-03T01:32:59.021Z,1021.37
2022-11-03T01:33:59.621Z,1021.26
2022-11-03T01:35:01.072Z,1021.27
2022-11-03T01:36:01.670Z,1021.31
2022-11-03T01:37:02.267Z,1021.24
2022-11-03T01:38:02.867Z,1021.26
2022-11-03T01:39:04.317Z,1021.16
2022-11-03T01:40:04.915Z,1021.23
2022-11-03T01:41:05.521Z,1021.23
2022-11-03T01:42:06.117Z,1021.28
2022-11-03T01:43:07.119Z,1021.26
2022-11-03T01:44:07.445Z,1021.27
2022-11-03T01:45:08.028Z,1021.23
2022-11-03T01:46:08.678Z,1021.19
2022-11-03T01:47:09.283Z,1021.21
2022-11-03T01:48:09.953Z,1021.09
2022-11-03T01:49:10.552Z,1021.22
2022-11-03T01:50:11.161Z,1021.13
2022-11-03T01:51:11.872Z,1021.16
2022-11-03T01:52:12.472Z,1021.19
2022-11-03T01:53:13.071Z,1021.22
2022-11-03T01:54:13.670Z,1021.31
2022-11-03T01:55:14.272Z,1021.24
2022-11-03T01:56:14.871Z,1021.20
2022-11-03T01:57:15.470Z,1021.16
2022-11-03T01:58:16.073Z,1021.19
2022-11-03T01:59:16.672Z,1021.15
2022-11-03T02:00:17.338Z,1021.20
2022-11-03T02:01:18.111Z,1021.23
2022-11-03T02:02:18.786Z,1021.10
2022-11-03T02:03:19.426Z,1021.08
2022-11-03T02:04:20.025Z,1021.15
2022-11-03T02:05:20.627Z,1021.11
2022-11-03T02:06:21.226Z,1021.13
2022-11-03T02:07:21.823Z,1021.11
2022-11-03T02:08:22.421Z,1021.11
2022-11-03T02:09:23.023Z,1021.04
2022-11-03T02:10:23.623Z,1021.01
2022-11-03T02:11:24.221Z,1021.02
2022-11-03T02:12:24.820Z,1021.02
2022-11-03T02:13:25.421Z,1021.01
2022-11-03T02:14:26.023Z,1020.98
2022-11-03T02:15:26.625Z,1020.92
2022-11-03T02:16:27.296Z,1020.93
2022-11-03T02:17:27.899Z,1020.86
2022-11-03T02:18:28.503Z,1020.83
2022-11-03T02:19:29.105Z,1020.85
2022-11-03T02:20:29.707Z,1020.92
2022-11-03T02:21:30.312Z,1020.93
2022-11-03T02:22:30.912Z,1020.92
2022-11-03T02:23:31.518Z,1020.99
2022-11-03T02:24:32.122Z,1020.92
2022-11-03T02:25:32.725Z,1020.92
2022-11-03T02:26:33.325Z,1020.97
2022-11-03T02:27:33.921Z,1021.00
2022-11-03T02:28:34.521Z,1020.96
2022-11-03T02:29:35.140Z,1020.99
2022-11-03T02:30:35.713Z,1020.96
2022-11-03T02:31:36.313Z,1020.89
2022-11-03T02:32:37.111Z,1020.94
2022-11-03T02:33:37.711Z,1020.99
2022-11-03T02:34:38.311Z,1021.01
2022-11-03T02:35:38.912Z,1021.00
2022-11-03T02:36:39.513Z,1021.05
2022-11-03T02:37:40.115Z,1021.05
2022-11-03T02:38:40.714Z,1021.06
2022-11-03T02:39:41.317Z,1021.06
2022-11-03T02:40:41.914Z,1021.03
2022-11-03T02:41:42.511Z,1021.05
2022-11-03T02:42:43.259Z,1021.08
2022-11-03T02:43:43.858Z,1021.11
2022-11-03T02:44:44.460Z,1021.00
2022-11-03T02:45:45.061Z,1021.05
2022-11-03T02:46:45.662Z,1021.05
2022-11-03T02:47:46.313Z,1021.13
2022-11-03T02:48:46.915Z,1021.12
2022-11-03T02:49:47.628Z,1021.02
2022-11-03T02:50:48.231Z,1021.02
2022-11-03T02:51:48.833Z,1021.11
2022-11-03T02:52:49.433Z,1021.08
2022-11-03T02:53:50.032Z,1021.07
2022-11-03T02:54:50.631Z,1021.09
2022-11-03T02:55:51.234Z,1021.09
2022-11-03T02:56:51.834Z,1021.09
2022-11-03T02:57:52.440Z,1021.13
2022-11-03T02:58:53.035Z,1021.09
2022-11-03T02:59:53.687Z,1021.05
2022-11-03T03:00:54.338Z,1021.06
2022-11-03T03:01:55.077Z,1020.95
2022-11-03T03:02:55.736Z,1021.06
2022-11-03T03:03:56.337Z,1021.08
2022-11-03T03:04:56.938Z,1021.08
2022-11-03T03:05:58.340Z,1021.03
2022-11-03T03:06:58.944Z,1021.05
2022-11-03T03:07:59.542Z,1021.04
2022-11-03T03:09:00.136Z,1021.09
2022-11-03T03:10:00.736Z,1021.06
2022-11-03T03:11:01.337Z,1021.11
2022-11-03T03:12:01.938Z,1021.13
2022-11-03T03:13:02.554Z,1021.01
2022-11-03T03:14:03.134Z,1021.05
2022-11-03T03:15:03.735Z,1021.04
2022-11-03T03:16:04.354Z,1021.07
2022-11-03T03:17:05.005Z,1021.12
2022-11-03T03:18:05.677Z,1021.03
2022-11-03T03:19:06.275Z,1021.00
2022-11-03T03:20:06.875Z,1021.05
2022-11-03T03:21:07.481Z,1021.07
2022-11-03T03:22:08.082Z,1021.08
2022-11-03T03:23:11.324Z,1021.05
2022-11-03T03:24:10.275Z,1021.02
2022-11-03T03:25:10.874Z,1021.03
2022-11-03T03:26:11.475Z,1021.05
2022-11-03T03:27:12.077Z,1021.02
2022-11-03T03:28:12.678Z,1020.99
2022-11-03T03:29:13.279Z,1020.99
2022-11-03T03:30:13.883Z,1020.96
2022-11-03T03:31:14.485Z,1020.92
2022-11-03T03:32:15.086Z,1020.94
2022-11-03T03:33:15.752Z,1020.83
2022-11-03T03:34:31.432Z,1020.92
2022-11-03T03:35:17.969Z,1020.79
2022-11-03T03:36:18.567Z,1020.82
2022-11-03T03:37:19.168Z,1020.79
2022-11-03T03:38:19.765Z,1020.75
2022-11-03T03:39:20.364Z,1020.69
2022-11-03T03:40:20.962Z,1020.72
2022-11-03T03:41:21.569Z,1020.80
2022-11-03T03:42:22.162Z,1020.77
2022-11-03T03:43:22.799Z,1020.79
2022-11-03T03:44:23.396Z,1020.79
2022-11-03T03:45:23.996Z,1020.77
2022-11-03T03:46:24.660Z,1020.74
2022-11-03T03:47:25.411Z,1020.72
2022-11-03T03:48:26.014Z,1020.78
2022-11-03T03:49:26.610Z,1020.73
2022-11-03T03:50:27.357Z,1020.71
2022-11-03T03:51:27.956Z,1020.74
2022-11-03T03:52:28.608Z,1020.74
2022-11-03T03:53:29.209Z,1020.67
2022-11-03T03:54:29.810Z,1020.71
2022-11-03T03:55:30.413Z,1020.70
2022-11-03T03:56:31.010Z,1020.69
2022-11-03T03:57:31.610Z,1020.64
2022-11-03T03:58:32.212Z,1020.63
2022-11-03T03:59:32.884Z,1020.59
2022-11-03T04:00:33.484Z,1020.63
2022-11-03T04:01:34.310Z,1020.62
2022-11-03T04:02:35.156Z,1020.65
2022-11-03T04:03:35.787Z,1020.67
2022-11-03T04:04:36.387Z,1020.67
2022-11-03T04:05:36.987Z,1020.67
2022-11-03T04:06:37.582Z,1020.67
2022-11-03T04:07:42.514Z,1020.78
2022-11-03T04:08:39.827Z,1020.77
2022-11-03T04:09:40.422Z,1020.73
2022-11-03T04:10:41.021Z,1020.75
2022-11-03T04:11:41.618Z,1020.73
2022-11-03T04:12:42.219Z,1020.73
2022-11-03T04:13:42.818Z,1020.71
2022-11-03T04:14:43.420Z,1020.80
2022-11-03T04:15:44.094Z,1020.77
2022-11-03T04:16:44.691Z,1020.75
2022-11-03T04:17:45.371Z,1020.68
2022-11-03T04:18:45.967Z,1020.64
2022-11-03T04:19:46.560Z,1020.65
2022-11-03T04:20:47.209Z,1020.67
2022-11-03T04:21:47.808Z,1020.69
2022-11-03T04:22:48.409Z,1020.78
2022-11-03T04:23:49.012Z,1020.63
2022-11-03T04:24:49.612Z,1020.66
2022-11-03T04:25:50.215Z,1020.65
2022-11-03T04:26:50.817Z,1020.65
2022-11-03T04:27:51.415Z,1020.55
2022-11-03T04:28:52.016Z,1020.57
2022-11-03T04:29:52.615Z,1020.55
2022-11-03T04:30:56.081Z,1020.53
2022-11-03T04:31:54.811Z,1020.55
2022-11-03T04:32:55.409Z,1020.58
2022-11-03T04:33:56.006Z,1020.58
2022-11-03T04:34:56.609Z,1020.60
2022-11-03T04:35:57.213Z,1020.62
2022-11-03T04:36:57.813Z,1020.50
2022-11-03T04:37:58.414Z,1020.50
2022-11-03T04:38:59.159Z,1020.55
2022-11-03T04:39:59.785Z,1020.53
2022-11-03T04:41:00.404Z,1020.55
2022-11-03T04:42:01.068Z,1020.55
2022-11-03T04:43:01.664Z,1020.55
2022-11-03T04:44:02.262Z,1020.59
2022-11-03T04:45:02.858Z,1020.67
2022-11-03T04:46:03.457Z,1020.71
2022-11-03T04:47:04.056Z,1020.67
2022-11-03T04:48:04.655Z,1020.69
2022-11-03T04:49:05.254Z,1020.77
2022-11-03T04:50:05.852Z,1020.75
2022-11-03T04:51:06.602Z,1020.69
2022-11-03T04:52:07.202Z,1020.78
2022-11-03T04:53:08.131Z,1020.74
2022-11-03T04:54:09.017Z,1020.74
2022-11-03T04:55:09.620Z,1020.80
2022-11-03T04:56:10.473Z,1020.80
2022-11-03T04:57:11.077Z,1020.80
2022-11-03T04:58:11.672Z,1020.82
2022-11-03T04:59:12.273Z,1020.87
2022-11-03T05:00:12.876Z,1020.85
2022-11-03T05:01:13.692Z,1020.79
2022-11-03T05:02:14.332Z,1020.77
2022-11-03T05:03:14.928Z,1020.83
2022-11-03T05:04:15.529Z,1020.73
2022-11-03T05:05:16.130Z,1020.73
2022-11-03T05:06:16.732Z,1020.73
2022-11-03T05:07:17.328Z,1020.78
2022-11-03T05:08:17.926Z,1020.81
2022-11-03T05:09:18.530Z,1020.75
2022-11-03T05:10:19.132Z,1020.68
2022-11-03T05:11:19.742Z,1020.69
2022-11-03T05:12:20.336Z,1020.69
2022-11-03T05:13:21.789Z,1020.73
2022-11-03T05:14:22.392Z,1020.73
2022-11-03T05:15:22.994Z,1020.69
2022-11-03T05:16:23.598Z,1020.73
2022-11-03T05:17:24.211Z,1020.73
2022-11-03T05:18:24.802Z,1020.74
2022-11-03T05:19:25.402Z,1020.72
2022-11-03T05:20:26.010Z,1020.72
2022-11-03T05:21:26.659Z,1020.74
2022-11-03T05:22:27.259Z,1020.66
2022-11-03T05:23:27.861Z,1020.62
2022-11-03T05:24:28.529Z,1020.60
2022-11-03T05:25:29.134Z,1020.72
2022-11-03T05:26:29.728Z,1020.65
2022-11-03T05:27:30.326Z,1020.65
2022-11-03T05:28:30.931Z,1020.57
2022-11-03T05:29:31.523Z,1020.60
2022-11-03T05:30:32.124Z,1020.56
2022-11-03T05:31:32.724Z,1020.50
2022-11-03T05:32:33.330Z,1020.47
2022-11-03T05:33:33.916Z,1020.52
2022-11-03T05:34:34.547Z,1020.46
2022-11-03T05:35:35.179Z,1020.43
2022-11-03T05:36:35.779Z,1020.49
2022-11-03T05:37:36.377Z,1020.56
2022-11-03T05:38:36.978Z,1020.55
2022-11-03T05:39:37.649Z,1020.57
2022-11-03T05:40:38.312Z,1020.45
2022-11-03T05:41:38.974Z,1020.49
2022-11-03T05:42:39.563Z,1020.56
2022-11-03T05:43:40.163Z,1020.53
2022-11-03T05:44:40.764Z,1020.49
2022-11-03T05:45:41.363Z,1020.43
2022-11-03T05:46:41.964Z,1020.48
2022-11-03T05:47:42.565Z,1020.52
2022-11-03T05:48:43.167Z,1020.42
2022-11-03T05:49:43.768Z,1020.54
2022-11-03T05:50:44.371Z,1020.42
2022-11-03T05:51:44.972Z,1020.37
2022-11-03T05:52:45.569Z,1020.48
2022-11-03T05:53:46.179Z,1020.53
2022-11-03T05:54:46.777Z,1020.44
2022-11-03T05:55:47.529Z,1020.53
2022-11-03T05:56:48.284Z,1020.44
2022-11-03T05:57:48.883Z,1020.44
2022-11-03T05:58:49.488Z,1020.41
2022-11-03T05:59:50.083Z,1020.43
2022-11-03T06:00:50.734Z,1020.40
2022-11-03T06:01:51.456Z,1020.40
2022-11-03T06:02:52.199Z,1020.48
2022-11-03T06:03:52.789Z,1020.39
2022-11-03T06:04:53.394Z,1020.42
2022-11-03T06:05:53.997Z,1020.46
2022-11-03T06:06:54.595Z,1020.41
2022-11-03T06:07:55.195Z,1020.39
2022-11-03T06:08:56.597Z,1020.43
2022-11-03T06:09:57.200Z,1020.40
2022-11-03T06:10:57.799Z,1020.43
2022-11-03T06:11:58.393Z,1020.37
2022-11-03T06:12:58.994Z,1020.34
2022-11-03T06:13:59.592Z,1020.28
2022-11-03T06:15:00.192Z,1020.35
2022-11-03T06:16:00.797Z,1020.37
2022-11-03T06:17:01.394Z,1020.37
2022-11-03T06:18:01.996Z,1020.33
2022-11-03T06:19:02.592Z,1020.33
2022-11-03T06:20:03.195Z,1020.30
2022-11-03T06:21:03.798Z,1020.35
2022-11-03T06:22:04.399Z,1020.45
2022-11-03T06:23:05.278Z,1020.37
2022-11-03T06:24:06.117Z,1020.31
2022-11-03T06:25:06.869Z,1020.33
2022-11-03T06:26:07.470Z,1020.34
2022-11-03T06:27:08.070Z,1020.28
2022-11-03T06:28:08.673Z,1020.27
2022-11-03T06:29:09.390Z,1020.41
2022-11-03T06:30:09.998Z,1020.41
2022-11-03T06:31:11.513Z,1020.28
2022-11-03T06:32:12.162Z,1020.33
2022-11-03T06:33:12.911Z,1020.23
2022-11-03T06:34:13.509Z,1020.20
2022-11-03T06:35:14.109Z,1020.29
2022-11-03T06:36:15.557Z,1020.31
2022-11-03T06:37:16.356Z,1020.31
2022-11-03T06:38:16.953Z,1020.19
2022-11-03T06:39:17.552Z,1020.23
2022-11-03T06:40:18.149Z,1020.26
2022-11-03T06:41:18.750Z,1020.23
2022-11-03T06:42:19.399Z,1020.33
2022-11-03T06:43:19.999Z,1020.23
2022-11-03T06:44:20.601Z,1020.19
2022-11-03T06:45:21.200Z,1020.21
2022-11-03T06:46:21.800Z,1020.21
2022-11-03T06:47:22.402Z,1020.17
2022-11-03T06:48:23.001Z,1020.18
2022-11-03T06:49:23.602Z,1020.20
2022-11-03T06:50:24.206Z,1020.16
2022-11-03T06:51:24.805Z,1020.16
2022-11-03T06:52:25.413Z,1020.16
2022-11-03T06:53:26.004Z,1020.16
2022-11-03T06:54:26.610Z,1020.18
2022-11-03T06:55:27.284Z,1020.18
2022-11-03T06:56:27.878Z,1020.18
2022-11-03T06:57:28.480Z,1020.15
2022-11-03T06:58:29.079Z,1020.20
2022-11-03T06:59:29.680Z,1020.18
2022-11-03T07:00:35.552Z,1020.19
2022-11-03T07:01:31.974Z,1020.24
2022-11-03T07:02:32.740Z,1020.20
2022-11-03T07:03:33.457Z,1020.22
2022-11-03T07:04:34.092Z,1020.25
2022-11-03T07:05:34.691Z,1020.28
2022-11-03T07:06:35.291Z,1020.18
2022-11-03T07:07:35.958Z,1020.10
2022-11-03T07:08:36.557Z,1020.14
2022-11-03T07:09:37.154Z,1020.17
2022-11-03T07:10:37.755Z,1020.21
2022-11-03T07:11:38.352Z,1020.12
2022-11-03T07:12:38.948Z,1020.12
2022-11-03T07:13:39.549Z,1020.19
2022-11-03T07:14:40.147Z,1020.13
2022-11-03T07:15:40.754Z,1020.15
2022-11-03T07:16:41.363Z,1020.15
2022-11-03T07:17:41.944Z,1020.14
2022-11-03T07:18:42.549Z,1020.15
2022-11-03T07:19:43.149Z,1020.14
2022-11-03T07:20:43.756Z,1020.14
2022-11-03T07:21:44.425Z,1020.17
2022-11-03T07:22:45.027Z,1020.16
2022-11-03T07:23:47.224Z,1020.24
2022-11-03T07:24:47.220Z,1020.15
2022-11-03T07:25:47.822Z,1020.22
2022-11-03T07:26:48.427Z,1020.15
2022-11-03T07:27:49.027Z,1020.29
2022-11-03T07:28:49.631Z,1020.17
2022-11-03T07:29:50.295Z,1020.32
2022-11-03T07:30:50.927Z,1020.21
2022-11-03T07:31:51.530Z,1020.21
2022-11-03T07:32:52.132Z,1020.19
2022-11-03T07:33:52.734Z,1020.26
2022-11-03T07:34:53.336Z,1020.29
2022-11-03T07:36:14.449Z,1020.21
2022-11-03T07:36:56.191Z,1020.28
2022-11-03T07:37:56.875Z,1020.29
2022-11-03T07:38:57.525Z,1020.30
2022-11-03T07:39:58.122Z,1020.29
2022-11-03T07:40:58.770Z,1020.34
2022-11-03T07:41:59.420Z,1020.30
2022-11-03T07:43:00.171Z,1020.33
2022-11-03T07:44:00.796Z,1020.28
2022-11-03T07:45:01.520Z,1020.31
2022-11-03T07:46:02.118Z,1020.29
2022-11-03T07:47:02.768Z,1020.34
2022-11-03T07:48:04.531Z,1020.28
2022-11-03T07:49:04.964Z,1020.35
2022-11-03T07:50:05.566Z,1020.37
2022-11-03T07:51:06.198Z,1020.28
2022-11-03T07:52:07.596Z,1020.30
2022-11-03T07:53:08.199Z,1020.40
2022-11-03T07:54:08.868Z,1020.42
2022-11-03T07:55:09.472Z,1020.35
2022-11-03T07:56:10.123Z,1020.37
2022-11-03T07:57:10.754Z,1020.32
2022-11-03T07:58:11.357Z,1020.30
2022-11-03T07:59:11.967Z,1020.34
2022-11-03T08:00:12.606Z,1020.38
2022-11-03T08:01:13.229Z,1020.47
2022-11-03T08:02:13.916Z,1020.44
2022-11-03T08:03:14.533Z,1020.33
2022-11-03T08:04:15.134Z,1020.44
2022-11-03T08:05:16.680Z,1020.42
2022-11-03T08:06:19.817Z,1020.44
2022-11-03T08:07:18.927Z,1020.45
2022-11-03T08:08:19.527Z,1020.43
2022-11-03T08:09:20.123Z,1020.49
2022-11-03T08:10:20.721Z,1020.48
2022-11-03T08:11:23.315Z,1020.56
2022-11-03T08:12:22.920Z,1020.49
2022-11-03T08:13:23.508Z,1020.54
2022-11-03T08:14:24.107Z,1020.48
2022-11-03T08:15:24.707Z,1020.57
2022-11-03T08:16:25.308Z,1020.42
2022-11-03T08:17:25.908Z,1020.49
2022-11-03T08:18:26.509Z,1020.42
2022-11-03T08:19:27.113Z,1020.40
2022-11-03T08:20:27.716Z,1020.47
2022-11-03T08:21:28.317Z,1020.44
2022-11-03T08:22:28.983Z,1020.48
2022-11-03T08:23:29.921Z,1020.49
2022-11-03T08:24:30.727Z,1020.50
2022-11-03T08:25:31.330Z,1020.56
2022-11-03T08:26:31.931Z,1020.51
2022-11-03T08:27:32.528Z,1020.48
2022-11-03T08:28:33.129Z,1020.51
2022-11-03T08:29:33.737Z,1020.68
2022-11-03T08:30:34.339Z,1020.63
2022-11-03T08:31:35.005Z,1020.70
2022-11-03T08:32:35.608Z,1020.66
2022-11-03T08:33:36.208Z,1020.67
2022-11-03T08:34:36.809Z,1020.67
2022-11-03T08:35:37.407Z,1020.55
2022-11-03T08:36:38.011Z,1020.67
2022-11-03T08:37:38.609Z,1020.66
2022-11-03T08:38:39.211Z,1020.67
2022-11-03T08:39:39.814Z,1020.66
2022-11-03T08:40:40.415Z,1020.64
2022-11-03T08:41:41.017Z,1020.72
2022-11-03T08:42:42.423Z,1020.66
2022-11-03T08:43:43.097Z,1020.58
2022-11-03T08:44:43.747Z,1020.62
2022-11-03T08:45:44.495Z,1020.69
2022-11-03T08:46:45.145Z,1020.62
2022-11-03T08:47:45.790Z,1020.79
2022-11-03T08:48:46.428Z,1020.74
2022-11-03T08:49:47.044Z,1020.73
2022-11-03T08:50:47.692Z,1020.74
2022-11-03T08:51:48.293Z,1020.79
2022-11-03T08:52:48.957Z,1020.74
2022-11-03T08:53:49.557Z,1020.76
2022-11-03T08:54:50.208Z,1020.78
2022-11-03T08:55:50.825Z,1020.82
2022-11-03T08:56:51.425Z,1020.78
2022-11-03T08:57:52.027Z,1020.78
2022-11-03T08:58:52.627Z,1020.76
2022-11-03T08:59:53.226Z,1020.76
2022-11-03T09:00:53.826Z,1020.72
2022-11-03T09:01:54.464Z,1020.78
2022-11-03T09:02:55.082Z,1020.83
2022-11-03T09:03:55.741Z,1020.82
2022-11-03T09:04:56.352Z,1021.00
2022-11-03T09:05:56.955Z,1020.89
2022-11-03T09:06:57.556Z,1020.91
2022-11-03T09:11:02.943Z,1020.88
2022-11-03T09:12:03.547Z,1020.86
2022-11-03T09:13:04.452Z,1020.84
2022-11-03T09:14:05.221Z,1020.82
2022-11-03T09:15:05.818Z,1020.82
2022-11-03T09:16:06.416Z,1020.89
2022-11-03T09:17:07.026Z,1020.86
2022-11-03T09:18:07.975Z,1020.94
2022-11-03T09:19:08.711Z,1020.88
2022-11-03T09:20:09.312Z,1020.90
2022-11-03T09:21:09.907Z,1020.93
2022-11-03T09:22:10.507Z,1020.90
2022-11-03T09:23:11.175Z,1020.93
2022-11-03T09:24:11.840Z,1020.97
2022-11-03T09:25:12.436Z,1020.94
2022-11-03T09:26:13.034Z,1021.01
2022-11-03T09:27:13.634Z,1020.98
2022-11-03T09:28:14.235Z,1021.01
2022-11-03T09:29:14.907Z,1021.01
2022-11-03T09:30:15.510Z,1021.00
2022-11-03T09:31:16.102Z,1021.00
2022-11-03T09:32:22.759Z,1020.96
2022-11-03T09:33:18.288Z,1020.96
2022-11-03T09:34:18.892Z,1020.97
2022-11-03T09:35:19.488Z,1020.99
2022-11-03T09:36:20.089Z,1021.03
2022-11-03T09:37:20.686Z,1020.91
2022-11-03T09:38:21.286Z,1020.83
2022-11-03T09:39:21.885Z,1020.89
2022-11-03T09:40:22.486Z,1020.96
2022-11-03T09:41:27.985Z,1020.93
2022-11-03T09:42:24.733Z,1020.95
2022-11-03T09:43:25.539Z,1020.97
2022-11-03T09:44:26.213Z,1020.96
2022-11-03T09:45:26.804Z,1021.04
2022-11-03T09:46:27.560Z,1021.00
2022-11-03T09:47:28.160Z,1021.06
2022-11-03T09:48:28.762Z,1020.93
2022-11-03T09:49:29.364Z,1021.05
2022-11-03T09:50:29.965Z,1021.04
2022-11-03T09:51:30.567Z,1020.96
2022-11-03T09:52:31.318Z,1020.94
2022-11-03T09:53:31.962Z,1021.07
2022-11-03T09:54:33.428Z,1021.07
2022-11-03T09:55:34.030Z,1021.06
2022-11-03T09:56:34.633Z,1021.13
2022-11-03T09:57:35.236Z,1021.15
2022-11-03T09:58:35.956Z,1021.12
2022-11-03T09:59:36.560Z,1021.12
2022-11-03T10:00:37.167Z,1021.12
2022-11-03T10:01:38.012Z,1021.24
2022-11-03T10:02:38.696Z,1021.20
2022-11-03T10:03:39.303Z,1021.17
2022-11-03T10:04:39.898Z,1021.26
2022-11-03T10:05:40.494Z,1021.27
2022-11-03T10:06:41.095Z,1021.26
2022-11-03T10:07:41.759Z,1021.28
2022-11-03T10:08:42.381Z,1021.21
2022-11-03T10:09:42.979Z,1021.10
2022-11-03T10:10:43.577Z,1021.14
2022-11-03T10:11:44.974Z,1021.05
2022-11-03T10:12:45.574Z,1021.09
2022-11-03T10:13:46.168Z,1021.06
2022-11-03T10:14:46.768Z,1021.15
2022-11-03T10:15:47.364Z,1021.08
2022-11-03T10:16:53.160Z,1021.12
2022-11-03T10:17:49.555Z,1021.09
2022-11-03T10:18:50.195Z,1021.04
2022-11-03T10:19:50.780Z,1021.08
2022-11-03T10:20:51.382Z,1021.09
2022-11-03T10:21:51.983Z,1021.05
2022-11-03T10:22:52.598Z,1021.09
2022-11-03T10:23:53.189Z,1021.09
2022-11-03T10:24:53.794Z,1021.05
2022-11-03T10:25:54.395Z,1021.04
2022-11-03T10:26:54.998Z,1021.03
2022-11-03T10:27:55.671Z,1021.00
2022-11-03T10:28:56.270Z,1021.02
2022-11-03T10:29:58.142Z,1021.06
2022-11-03T10:31:11.350Z,1021.18
2022-11-03T10:32:00.061Z,1021.13
2022-11-03T10:33:00.663Z,1021.19
2022-11-03T10:34:01.262Z,1021.16
2022-11-03T10:35:01.861Z,1021.18
2022-11-03T10:36:02.456Z,1021.15
2022-11-03T10:37:03.058Z,1021.20
2022-11-03T10:38:03.657Z,1021.23
2022-11-03T10:39:04.259Z,1021.23
2022-11-03T10:40:07.051Z,1021.23
2022-11-03T10:41:06.514Z,1021.30
2022-11-03T10:42:07.180Z,1021.23
2022-11-03T10:43:08.253Z,1021.23
2022-11-03T10:44:08.445Z,1021.29
2022-11-03T10:45:09.044Z,1021.29
2022-11-03T10:46:23.440Z,1021.23
2022-11-03T10:47:11.236Z,1021.18
2022-11-03T10:48:11.831Z,1021.23
2022-11-03T10:49:12.487Z,1021.27
2022-11-03T10:50:13.079Z,1021.30
2022-11-03T10:51:13.685Z,1021.28
2022-11-03T10:52:14.288Z,1021.30
2022-11-03T10:53:14.934Z,1021.30
2022-11-03T10:54:15.547Z,1021.36
2022-11-03T10:55:19.257Z,1021.23
2022-11-03T10:56:17.744Z,1021.18
2022-11-03T10:57:18.349Z,1021.22
2022-11-03T10:58:19.014Z,1021.23
2022-11-03T10:59:19.618Z,1021.23
2022-11-03T11:00:20.369Z,1021.26
2022-11-03T11:01:21.056Z,1021.18
2022-11-03T11:02:21.833Z,1021.25
2022-11-03T11:03:22.467Z,1021.28
2022-11-03T11:04:23.107Z,1021.30
2022-11-03T11:05:23.721Z,1021.34
2022-11-03T11:06:25.172Z,1021.25
2022-11-03T11:07:25.773Z,1021.32
2022-11-03T11:08:26.475Z,1021.29
2022-11-03T11:09:27.180Z,1021.29
2022-11-03T11:10:27.780Z,1021.26
2022-11-03T11:11:28.379Z,1021.23
2022-11-03T11:12:28.978Z,1021.37
2022-11-03T11:13:29.576Z,1021.32
2022-11-03T11:14:30.174Z,1021.34
2022-11-03T11:15:30.772Z,1021.37
2022-11-03T11:16:31.371Z,1021.35
2022-11-03T11:17:32.033Z,1021.30
2022-11-03T11:18:32.632Z,1021.39
2022-11-03T11:19:33.232Z,1021.34
2022-11-03T11:20:33.828Z,1021.33
2022-11-03T11:21:35.692Z,1021.31
2022-11-03T11:22:36.174Z,1021.34
2022-11-03T11:23:36.780Z,1021.34
2022-11-03T11:24:37.377Z,1021.35
2022-11-03T11:25:37.977Z,1021.32
2022-11-03T11:26:38.578Z,1021.37
2022-11-03T11:27:39.181Z,1021.46
2022-11-03T11:28:39.786Z,1021.45
2022-11-03T11:29:40.452Z,1021.41
2022-11-03T11:30:41.053Z,1021.41
2022-11-03T11:31:41.655Z,1021.42
2022-11-03T11:32:42.253Z,1021.40
2022-11-03T11:33:42.857Z,1021.47
2022-11-03T11:34:43.455Z,1021.53
2022-11-03T11:35:44.056Z,1021.48
2022-11-03T11:36:44.653Z,1021.52
2022-11-03T11:37:45.256Z,1021.52
2022-11-03T11:38:45.858Z,1021.44
2022-11-03T11:39:46.461Z,1021.43
2022-11-03T11:40:47.057Z,1021.43
2022-11-03T11:41:48.455Z,1021.40
2022-11-03T11:42:49.118Z,1021.43
2022-11-03T11:43:49.717Z,1021.44
2022-11-03T11:44:50.314Z,1021.40
2022-11-03T11:45:50.917Z,1021.44
2022-11-03T11:46:51.511Z,1021.35
2022-11-03T11:47:52.113Z,1021.45
2022-11-03T11:48:52.776Z,1021.31
2022-11-03T11:49:53.375Z,1021.37
2022-11-03T11:50:53.977Z,1021.42
2022-11-03T11:51:54.573Z,1021.38
2022-11-03T11:52:55.173Z,1021.42
2022-11-03T11:54:16.511Z,1021.40
2022-11-03T11:54:57.363Z,1021.38
2022-11-03T11:55:57.968Z,1021.40
2022-11-03T11:56:58.568Z,1021.34
2022-11-03T11:57:59.319Z,1021.38
2022-11-03T11:58:59.919Z,1021.35
2022-11-03T12:00:00.521Z,1021.45
2022-11-03T12:01:01.120Z,1021.40
2022-11-03T12:02:01.862Z,1021.40
2022-11-03T12:03:02.543Z,1021.36
2022-11-03T12:04:03.319Z,1021.36
2022-11-03T12:05:04.043Z,1021.43
2022-11-03T12:06:05.482Z,1021.39
2022-11-03T12:07:06.235Z,1021.48
2022-11-03T12:08:07.183Z,1021.40
2022-11-03T12:09:07.892Z,1021.40
2022-11-03T12:10:08.490Z,1021.37
2022-11-03T12:11:09.187Z,1021.34
2022-11-03T12:12:09.769Z,1021.41
2022-11-03T12:13:10.368Z,1021.35
2022-11-03T12:14:10.965Z,1021.38
2022-11-03T12:15:11.565Z,1021.46
2022-11-03T12:16:12.166Z,1021.32
2022-11-03T12:17:12.773Z,1021.41
2022-11-03T12:18:13.438Z,1021.46